sensor_id;sensor_type;location;lat;lon;timestamp;P1;durP1;ratioP1;P2;durP2;ratioP2
46355;SDS011;32066;49.474;11.106;2023-07-02T00:01:08;3.58;;;1.80;;
46355;SDS011;32066;49.474;11.106;2023-07-02T00:03:39;4.05;;;1.85;;
46355;SDS011;32066;49.474;11.106;2023-07-02T00:06:08;3.67;;;1.90;;
46355;SDS011;32066;49.474;11.106;2023-07-02T00:08:36;4.03;;;1.90;;
46355;SDS011;32066;49.474;11.106;2023-07-02T00:11:05;3.78;;;1.92;;
46355;SDS011;32066;49.474;11.106;2023-07-02T00:13:37;7.07;;;2.03;;
46355;SDS011;32066;49.474;11.106;2023-07-02T00:16:06;4.78;;;1.90;;
46355;SDS011;32066;49.474;11.106;2023-07-02T00:18:35;4.43;;;2.20;;
46355;SDS011;32066;49.474;11.106;2023-07-02T00:21:06;4.07;;;2.20;;
46355;SDS011;32066;49.474;11.106;2023-07-02T00:23:38;4.50;;;2.50;;
46355;SDS011;32066;49.474;11.106;2023-07-02T00:26:06;4.22;;;2.15;;
46355;SDS011;32066;49.474;11.106;2023-07-02T00:28:35;5.60;;;2.42;;
46355;SDS011;32066;49.474;11.106;2023-07-02T00:31:05;6.45;;;2.63;;
46355;SDS011;32066;49.474;11.106;2023-07-02T00:33:33;4.18;;;2.42;;
46355;SDS011;32066;49.474;11.106;2023-07-02T00:36:02;5.03;;;2.90;;
46355;SDS011;32066;49.474;11.106;2023-07-02T00:38:38;5.15;;;2.70;;
46355;SDS011;32066;49.474;11.106;2023-07-02T00:41:06;6.20;;;2.90;;
46355;SDS011;32066;49.474;11.106;2023-07-02T00:43:35;4.95;;;2.80;;
46355;SDS011;32066;49.474;11.106;2023-07-02T00:46:08;4.97;;;2.92;;
46355;SDS011;32066;49.474;11.106;2023-07-02T00:48:39;4.72;;;3.08;;
46355;SDS011;32066;49.474;11.106;2023-07-02T00:51:11;5.18;;;3.00;;
46355;SDS011;32066;49.474;11.106;2023-07-02T00:53:43;4.72;;;2.88;;
46355;SDS011;32066;49.474;11.106;2023-07-02T00:56:12;5.03;;;2.83;;
46355;SDS011;32066;49.474;11.106;2023-07-02T00:58:41;5.00;;;3.03;;
46355;SDS011;32066;49.474;11.106;2023-07-02T01:01:13;5.97;;;2.95;;
46355;SDS011;32066;49.474;11.106;2023-07-02T01:03:49;5.30;;;3.40;;
46355;SDS011;32066;49.474;11.106;2023-07-02T01:06:26;5.57;;;2.88;;
46355;SDS011;32066;49.474;11.106;2023-07-02T01:08:57;6.13;;;3.20;;
46355;SDS011;32066;49.474;11.106;2023-07-02T01:11:27;4.78;;;2.90;;
46355;SDS011;32066;49.474;11.106;2023-07-02T01:13:59;4.57;;;2.83;;
46355;SDS011;32066;49.474;11.106;2023-07-02T01:16:30;5.45;;;3.03;;
46355;SDS011;32066;49.474;11.106;2023-07-02T01:19:02;5.97;;;3.05;;
46355;SDS011;32066;49.474;11.106;2023-07-02T01:21:35;5.13;;;2.90;;
46355;SDS011;32066;49.474;11.106;2023-07-02T01:24:04;5.53;;;3.13;;
46355;SDS011;32066;49.474;11.106;2023-07-02T01:26:43;9.53;;;3.38;;
46355;SDS011;32066;49.474;11.106;2023-07-02T01:29:13;5.55;;;2.92;;
46355;SDS011;32066;49.474;11.106;2023-07-02T01:31:42;5.97;;;3.20;;
46355;SDS011;32066;49.474;11.106;2023-07-02T01:34:11;5.47;;;3.08;;
46355;SDS011;32066;49.474;11.106;2023-07-02T01:36:43;5.30;;;2.92;;
46355;SDS011;32066;49.474;11.106;2023-07-02T01:39:12;5.43;;;3.20;;
46355;SDS011;32066;49.474;11.106;2023-07-02T01:41:41;6.47;;;2.97;;
46355;SDS011;32066;49.474;11.106;2023-07-02T01:44:12;6.68;;;3.70;;
46355;SDS011;32066;49.474;11.106;2023-07-02T01:46:41;4.68;;;2.80;;
46355;SDS011;32066;49.474;11.106;2023-07-02T01:49:11;4.93;;;3.33;;
46355;SDS011;32066;49.474;11.106;2023-07-02T01:51:39;5.57;;;3.08;;
46355;SDS011;32066;49.474;11.106;2023-07-02T01:54:12;5.43;;;2.90;;
46355;SDS011;32066;49.474;11.106;2023-07-02T01:56:41;6.82;;;2.90;;
46355;SDS011;32066;49.474;11.106;2023-07-02T01:59:09;5.53;;;3.10;;
46355;SDS011;32066;49.474;11.106;2023-07-02T02:01:38;5.50;;;3.17;;
46355;SDS011;32066;49.474;11.106;2023-07-02T02:04:08;5.85;;;3.25;;
46355;SDS011;32066;49.474;11.106;2023-07-02T02:06:37;6.93;;;3.08;;
46355;SDS011;32066;49.474;11.106;2023-07-02T02:09:09;5.32;;;2.90;;
46355;SDS011;32066;49.474;11.106;2023-07-02T02:11:39;4.63;;;2.65;;
46355;SDS011;32066;49.474;11.106;2023-07-02T02:14:09;6.47;;;2.63;;
46355;SDS011;32066;49.474;11.106;2023-07-02T02:16:38;4.50;;;2.60;;
46355;SDS011;32066;49.474;11.106;2023-07-02T02:19:10;4.82;;;2.70;;
46355;SDS011;32066;49.474;11.106;2023-07-02T02:21:39;5.03;;;3.05;;
46355;SDS011;32066;49.474;11.106;2023-07-02T02:24:11;5.15;;;2.78;;
46355;SDS011;32066;49.474;11.106;2023-07-02T02:26:39;7.22;;;3.03;;
46355;SDS011;32066;49.474;11.106;2023-07-02T02:29:08;4.82;;;2.70;;
46355;SDS011;32066;49.474;11.106;2023-07-02T02:31:36;6.28;;;2.75;;
46355;SDS011;32066;49.474;11.106;2023-07-02T02:34:05;5.25;;;2.85;;
46355;SDS011;32066;49.474;11.106;2023-07-02T02:36:34;4.85;;;2.60;;
46355;SDS011;32066;49.474;11.106;2023-07-02T02:39:02;6.13;;;3.15;;
46355;SDS011;32066;49.474;11.106;2023-07-02T02:41:34;5.45;;;3.13;;
46355;SDS011;32066;49.474;11.106;2023-07-02T02:44:02;5.55;;;2.80;;
46355;SDS011;32066;49.474;11.106;2023-07-02T02:46:31;5.35;;;2.88;;
46355;SDS011;32066;49.474;11.106;2023-07-02T02:49:00;6.85;;;2.70;;
46355;SDS011;32066;49.474;11.106;2023-07-02T02:51:30;8.02;;;3.08;;
46355;SDS011;32066;49.474;11.106;2023-07-02T02:53:58;7.03;;;3.28;;
46355;SDS011;32066;49.474;11.106;2023-07-02T02:56:27;6.00;;;2.97;;
46355;SDS011;32066;49.474;11.106;2023-07-02T02:58:58;7.63;;;3.17;;
46355;SDS011;32066;49.474;11.106;2023-07-02T03:01:28;5.35;;;2.80;;
46355;SDS011;32066;49.474;11.106;2023-07-02T03:03:57;5.75;;;2.78;;
46355;SDS011;32066;49.474;11.106;2023-07-02T03:06:27;6.13;;;3.08;;
46355;SDS011;32066;49.474;11.106;2023-07-02T03:08:55;5.82;;;2.80;;
46355;SDS011;32066;49.474;11.106;2023-07-02T03:11:24;7.05;;;2.78;;
46355;SDS011;32066;49.474;11.106;2023-07-02T03:13:52;6.88;;;2.90;;
46355;SDS011;32066;49.474;11.106;2023-07-02T03:16:24;4.85;;;2.95;;
46355;SDS011;32066;49.474;11.106;2023-07-02T03:18:52;5.53;;;2.55;;
46355;SDS011;32066;49.474;11.106;2023-07-02T03:21:21;6.65;;;3.00;;
46355;SDS011;32066;49.474;11.106;2023-07-02T03:23:49;6.10;;;2.60;;
46355;SDS011;32066;49.474;11.106;2023-07-02T03:26:18;5.82;;;2.47;;
46355;SDS011;32066;49.474;11.106;2023-07-02T03:28:48;8.23;;;3.00;;
46355;SDS011;32066;49.474;11.106;2023-07-02T03:31:16;6.18;;;2.63;;
46355;SDS011;32066;49.474;11.106;2023-07-02T03:33:48;6.95;;;2.78;;
46355;SDS011;32066;49.474;11.106;2023-07-02T03:36:17;5.20;;;2.30;;
46355;SDS011;32066;49.474;11.106;2023-07-02T03:38:45;7.05;;;2.72;;
46355;SDS011;32066;49.474;11.106;2023-07-02T03:41:14;6.93;;;2.78;;
46355;SDS011;32066;49.474;11.106;2023-07-02T03:43:42;5.63;;;2.83;;
46355;SDS011;32066;49.474;11.106;2023-07-02T03:46:12;4.88;;;2.53;;
46355;SDS011;32066;49.474;11.106;2023-07-02T03:48:41;7.07;;;2.75;;
46355;SDS011;32066;49.474;11.106;2023-07-02T03:51:12;5.50;;;2.67;;
46355;SDS011;32066;49.474;11.106;2023-07-02T03:53:42;6.45;;;2.30;;
46355;SDS011;32066;49.474;11.106;2023-07-02T03:56:10;7.15;;;2.70;;
46355;SDS011;32066;49.474;11.106;2023-07-02T03:58:39;5.97;;;2.40;;
46355;SDS011;32066;49.474;11.106;2023-07-02T04:01:08;6.13;;;2.35;;
46355;SDS011;32066;49.474;11.106;2023-07-02T04:03:37;5.47;;;2.50;;
46355;SDS011;32066;49.474;11.106;2023-07-02T04:06:05;5.10;;;2.67;;
46355;SDS011;32066;49.474;11.106;2023-07-02T04:08:36;7.40;;;2.78;;
46355;SDS011;32066;49.474;11.106;2023-07-02T04:11:05;4.75;;;2.45;;
46355;SDS011;32066;49.474;11.106;2023-07-02T04:13:34;6.05;;;2.65;;
46355;SDS011;32066;49.474;11.106;2023-07-02T04:16:02;6.70;;;2.60;;
46355;SDS011;32066;49.474;11.106;2023-07-02T04:18:32;6.20;;;2.28;;
46355;SDS011;32066;49.474;11.106;2023-07-02T04:21:00;4.75;;;2.38;;
46355;SDS011;32066;49.474;11.106;2023-07-02T04:23:29;4.72;;;2.42;;
46355;SDS011;32066;49.474;11.106;2023-07-02T04:26:00;4.85;;;2.42;;
46355;SDS011;32066;49.474;11.106;2023-07-02T04:28:29;4.75;;;2.28;;
46355;SDS011;32066;49.474;11.106;2023-07-02T04:30:58;5.60;;;2.60;;
46355;SDS011;32066;49.474;11.106;2023-07-02T04:33:26;5.10;;;2.40;;
46355;SDS011;32066;49.474;11.106;2023-07-02T04:36:01;6.07;;;2.50;;
46355;SDS011;32066;49.474;11.106;2023-07-02T04:38:29;5.63;;;2.40;;
46355;SDS011;32066;49.474;11.106;2023-07-02T04:41:01;5.22;;;2.15;;
46355;SDS011;32066;49.474;11.106;2023-07-02T04:43:30;6.20;;;2.28;;
46355;SDS011;32066;49.474;11.106;2023-07-02T04:45:59;5.30;;;2.15;;
46355;SDS011;32066;49.474;11.106;2023-07-02T04:48:28;6.28;;;2.42;;
46355;SDS011;32066;49.474;11.106;2023-07-02T04:50:57;6.80;;;2.20;;
46355;SDS011;32066;49.474;11.106;2023-07-02T04:53:25;6.32;;;2.50;;
46355;SDS011;32066;49.474;11.106;2023-07-02T04:55:54;6.72;;;2.55;;
46355;SDS011;32066;49.474;11.106;2023-07-02T04:58:26;6.70;;;2.72;;
46355;SDS011;32066;49.474;11.106;2023-07-02T05:00:55;5.90;;;2.47;;
46355;SDS011;32066;49.474;11.106;2023-07-02T05:03:23;5.32;;;2.30;;
46355;SDS011;32066;49.474;11.106;2023-07-02T05:05:54;4.85;;;2.38;;
46355;SDS011;32066;49.474;11.106;2023-07-02T05:08:23;4.90;;;2.40;;
46355;SDS011;32066;49.474;11.106;2023-07-02T05:10:51;4.43;;;2.22;;
46355;SDS011;32066;49.474;11.106;2023-07-02T05:13:20;5.43;;;2.38;;
46355;SDS011;32066;49.474;11.106;2023-07-02T05:15:51;6.80;;;2.30;;
46355;SDS011;32066;49.474;11.106;2023-07-02T05:18:20;5.15;;;2.20;;
46355;SDS011;32066;49.474;11.106;2023-07-02T05:20:48;6.35;;;2.30;;
46355;SDS011;32066;49.474;11.106;2023-07-02T05:23:17;5.32;;;2.05;;
46355;SDS011;32066;49.474;11.106;2023-07-02T05:25:45;6.28;;;2.95;;
46355;SDS011;32066;49.474;11.106;2023-07-02T05:28:14;6.43;;;2.40;;
46355;SDS011;32066;49.474;11.106;2023-07-02T05:30:43;5.13;;;2.25;;
46355;SDS011;32066;49.474;11.106;2023-07-02T05:33:14;5.50;;;2.50;;
46355;SDS011;32066;49.474;11.106;2023-07-02T05:35:43;8.73;;;3.65;;
46355;SDS011;32066;49.474;11.106;2023-07-02T05:38:11;7.20;;;3.10;;
46355;SDS011;32066;49.474;11.106;2023-07-02T05:40:40;7.65;;;3.25;;
46355;SDS011;32066;49.474;11.106;2023-07-02T05:43:09;7.35;;;3.70;;
46355;SDS011;32066;49.474;11.106;2023-07-02T05:45:38;11.65;;;3.05;;
46355;SDS011;32066;49.474;11.106;2023-07-02T05:48:06;11.05;;;3.70;;
46355;SDS011;32066;49.474;11.106;2023-07-02T05:50:38;12.95;;;3.50;;
46355;SDS011;32066;49.474;11.106;2023-07-02T05:53:06;10.27;;;3.25;;
46355;SDS011;32066;49.474;11.106;2023-07-02T05:55:36;12.55;;;3.92;;
46355;SDS011;32066;49.474;11.106;2023-07-02T05:58:06;11.15;;;4.05;;
46355;SDS011;32066;49.474;11.106;2023-07-02T06:00:35;6.88;;;3.42;;
46355;SDS011;32066;49.474;11.106;2023-07-02T06:03:06;10.77;;;3.85;;
46355;SDS011;32066;49.474;11.106;2023-07-02T06:05:37;9.32;;;4.00;;
46355;SDS011;32066;49.474;11.106;2023-07-02T06:08:06;10.38;;;4.50;;
46355;SDS011;32066;49.474;11.106;2023-07-02T06:10:35;8.75;;;3.78;;
46355;SDS011;32066;49.474;11.106;2023-07-02T06:13:03;9.75;;;4.40;;
46355;SDS011;32066;49.474;11.106;2023-07-02T06:15:32;11.32;;;4.32;;
46355;SDS011;32066;49.474;11.106;2023-07-02T06:18:01;8.45;;;4.35;;
46355;SDS011;32066;49.474;11.106;2023-07-02T06:20:29;12.30;;;5.38;;
46355;SDS011;32066;49.474;11.106;2023-07-02T06:23:01;14.07;;;5.97;;
46355;SDS011;32066;49.474;11.106;2023-07-02T06:25:29;13.15;;;6.13;;
46355;SDS011;32066;49.474;11.106;2023-07-02T06:27:58;12.43;;;6.22;;
46355;SDS011;32066;49.474;11.106;2023-07-02T06:30:27;12.65;;;6.72;;
46355;SDS011;32066;49.474;11.106;2023-07-02T06:32:56;14.27;;;7.22;;
46355;SDS011;32066;49.474;11.106;2023-07-02T06:35:24;15.20;;;7.20;;
46355;SDS011;32066;49.474;11.106;2023-07-02T06:37:53;12.43;;;6.57;;
46355;SDS011;32066;49.474;11.106;2023-07-02T06:40:24;13.57;;;7.07;;
46355;SDS011;32066;49.474;11.106;2023-07-02T06:42:53;15.77;;;7.18;;
46355;SDS011;32066;49.474;11.106;2023-07-02T06:45:21;11.27;;;6.68;;
46355;SDS011;32066;49.474;11.106;2023-07-02T06:47:50;14.00;;;7.32;;
46355;SDS011;32066;49.474;11.106;2023-07-02T06:50:19;14.63;;;7.55;;
46355;SDS011;32066;49.474;11.106;2023-07-02T06:52:48;14.48;;;7.95;;
46355;SDS011;32066;49.474;11.106;2023-07-02T06:55:16;16.30;;;7.68;;
46355;SDS011;32066;49.474;11.106;2023-07-02T06:57:47;16.73;;;7.40;;
46355;SDS011;32066;49.474;11.106;2023-07-02T07:00:16;16.60;;;7.97;;
46355;SDS011;32066;49.474;11.106;2023-07-02T07:02:45;15.70;;;7.93;;
46355;SDS011;32066;49.474;11.106;2023-07-02T07:05:14;15.52;;;8.35;;
46355;SDS011;32066;49.474;11.106;2023-07-02T07:07:42;15.90;;;8.18;;
46355;SDS011;32066;49.474;11.106;2023-07-02T07:10:11;15.35;;;7.93;;
46355;SDS011;32066;49.474;11.106;2023-07-02T07:12:40;15.23;;;7.53;;
46355;SDS011;32066;49.474;11.106;2023-07-02T07:15:11;12.75;;;7.57;;
46355;SDS011;32066;49.474;11.106;2023-07-02T07:17:40;14.90;;;7.45;;
46355;SDS011;32066;49.474;11.106;2023-07-02T07:20:09;16.40;;;7.85;;
46355;SDS011;32066;49.474;11.106;2023-07-02T07:22:39;17.25;;;8.00;;
46355;SDS011;32066;49.474;11.106;2023-07-02T07:25:08;16.30;;;8.05;;
46355;SDS011;32066;49.474;11.106;2023-07-02T07:27:37;15.10;;;8.25;;
46355;SDS011;32066;49.474;11.106;2023-07-02T07:30:06;15.32;;;7.20;;
46355;SDS011;32066;49.474;11.106;2023-07-02T07:32:37;18.98;;;7.38;;
46355;SDS011;32066;49.474;11.106;2023-07-02T07:35:06;13.05;;;7.15;;
46355;SDS011;32066;49.474;11.106;2023-07-02T07:37:35;13.85;;;7.38;;
46355;SDS011;32066;49.474;11.106;2023-07-02T07:40:05;15.30;;;7.80;;
46355;SDS011;32066;49.474;11.106;2023-07-02T07:42:34;13.65;;;7.72;;
46355;SDS011;32066;49.474;11.106;2023-07-02T07:45:03;16.35;;;8.23;;
46355;SDS011;32066;49.474;11.106;2023-07-02T07:47:33;15.90;;;8.40;;
46355;SDS011;32066;49.474;11.106;2023-07-02T07:50:04;16.33;;;8.27;;
46355;SDS011;32066;49.474;11.106;2023-07-02T07:52:36;14.93;;;8.00;;
46355;SDS011;32066;49.474;11.106;2023-07-02T07:55:05;21.42;;;8.10;;
46355;SDS011;32066;49.474;11.106;2023-07-02T07:57:35;15.25;;;7.63;;
46355;SDS011;32066;49.474;11.106;2023-07-02T08:00:05;12.52;;;6.95;;
46355;SDS011;32066;49.474;11.106;2023-07-02T08:02:53;12.75;;;6.93;;
46355;SDS011;32066;49.474;11.106;2023-07-02T08:05:24;11.30;;;6.68;;
46355;SDS011;32066;49.474;11.106;2023-07-02T08:07:53;11.35;;;6.13;;
46355;SDS011;32066;49.474;11.106;2023-07-02T08:10:22;13.98;;;6.43;;
46355;SDS011;32066;49.474;11.106;2023-07-02T08:12:53;16.88;;;6.57;;
46355;SDS011;32066;49.474;11.106;2023-07-02T08:15:21;12.05;;;6.03;;
46355;SDS011;32066;49.474;11.106;2023-07-02T08:17:51;11.07;;;5.07;;
46355;SDS011;32066;49.474;11.106;2023-07-02T08:20:25;16.48;;;5.82;;
46355;SDS011;32066;49.474;11.106;2023-07-02T08:22:53;11.43;;;5.65;;
46355;SDS011;32066;49.474;11.106;2023-07-02T08:25:22;10.25;;;5.63;;
46355;SDS011;32066;49.474;11.106;2023-07-02T08:27:52;10.85;;;5.25;;
46355;SDS011;32066;49.474;11.106;2023-07-02T08:30:20;11.38;;;5.78;;
46355;SDS011;32066;49.474;11.106;2023-07-02T08:32:49;9.63;;;5.35;;
46355;SDS011;32066;49.474;11.106;2023-07-02T08:35:19;11.57;;;5.50;;
46355;SDS011;32066;49.474;11.106;2023-07-02T08:37:50;13.50;;;5.38;;
46355;SDS011;32066;49.474;11.106;2023-07-02T08:40:19;12.32;;;5.47;;
46355;SDS011;32066;49.474;11.106;2023-07-02T08:42:48;10.05;;;5.15;;
46355;SDS011;32066;49.474;11.106;2023-07-02T08:45:16;12.88;;;4.78;;
46355;SDS011;32066;49.474;11.106;2023-07-02T08:47:46;10.20;;;4.82;;
46355;SDS011;32066;49.474;11.106;2023-07-02T08:50:15;9.98;;;4.40;;
46355;SDS011;32066;49.474;11.106;2023-07-02T08:52:44;10.18;;;4.70;;
46355;SDS011;32066;49.474;11.106;2023-07-02T08:55:16;9.50;;;4.35;;
46355;SDS011;32066;49.474;11.106;2023-07-02T08:58:07;6.25;;;4.07;;
46355;SDS011;32066;49.474;11.106;2023-07-02T09:00:36;11.35;;;4.97;;
46355;SDS011;32066;49.474;11.106;2023-07-02T09:03:12;10.90;;;5.18;;
46355;SDS011;32066;49.474;11.106;2023-07-02T09:05:48;10.90;;;5.63;;
46355;SDS011;32066;49.474;11.106;2023-07-02T09:08:24;8.32;;;4.80;;
46355;SDS011;32066;49.474;11.106;2023-07-02T09:10:55;9.18;;;4.22;;
46355;SDS011;32066;49.474;11.106;2023-07-02T09:13:43;12.50;;;4.72;;
46355;SDS011;32066;49.474;11.106;2023-07-02T09:16:23;7.45;;;4.36;;
46355;SDS011;32066;49.474;11.106;2023-07-02T09:18:56;9.85;;;4.20;;
46355;SDS011;32066;49.474;11.106;2023-07-02T09:21:26;11.25;;;4.40;;
46355;SDS011;32066;49.474;11.106;2023-07-02T09:23:55;8.27;;;4.20;;
46355;SDS011;32066;49.474;11.106;2023-07-02T09:26:27;7.25;;;3.97;;
46355;SDS011;32066;49.474;11.106;2023-07-02T09:29:00;11.60;;;4.65;;
46355;SDS011;32066;49.474;11.106;2023-07-02T09:31:29;10.23;;;4.47;;
46355;SDS011;32066;49.474;11.106;2023-07-02T09:34:01;10.80;;;4.80;;
46355;SDS011;32066;49.474;11.106;2023-07-02T09:36:30;8.85;;;4.95;;
46355;SDS011;32066;49.474;11.106;2023-07-02T09:38:58;9.52;;;4.55;;
46355;SDS011;32066;49.474;11.106;2023-07-02T09:41:30;8.48;;;4.10;;
46355;SDS011;32066;49.474;11.106;2023-07-02T09:43:59;10.48;;;4.28;;
46355;SDS011;32066;49.474;11.106;2023-07-02T09:46:29;9.45;;;5.10;;
46355;SDS011;32066;49.474;11.106;2023-07-02T09:48:59;9.45;;;4.72;;
46355;SDS011;32066;49.474;11.106;2023-07-02T09:51:28;8.60;;;4.50;;
46355;SDS011;32066;49.474;11.106;2023-07-02T09:53:57;7.68;;;4.40;;
46355;SDS011;32066;49.474;11.106;2023-07-02T09:56:25;7.88;;;4.38;;
46355;SDS011;32066;49.474;11.106;2023-07-02T09:58:56;9.40;;;4.60;;
46355;SDS011;32066;49.474;11.106;2023-07-02T10:01:25;8.38;;;4.18;;
46355;SDS011;32066;49.474;11.106;2023-07-02T10:03:54;9.27;;;4.63;;
46355;SDS011;32066;49.474;11.106;2023-07-02T10:06:26;9.05;;;4.03;;
46355;SDS011;32066;49.474;11.106;2023-07-02T10:08:54;11.00;;;4.68;;
46355;SDS011;32066;49.474;11.106;2023-07-02T10:11:32;14.63;;;5.10;;
46355;SDS011;32066;49.474;11.106;2023-07-02T10:14:05;10.70;;;5.35;;
46355;SDS011;32066;49.474;11.106;2023-07-02T10:16:33;11.27;;;4.20;;
46355;SDS011;32066;49.474;11.106;2023-07-02T10:19:08;8.48;;;4.28;;
46355;SDS011;32066;49.474;11.106;2023-07-02T10:21:37;8.60;;;4.35;;
46355;SDS011;32066;49.474;11.106;2023-07-02T10:24:10;7.82;;;4.40;;
46355;SDS011;32066;49.474;11.106;2023-07-02T10:26:51;6.85;;;4.03;;
46355;SDS011;32066;49.474;11.106;2023-07-02T10:29:23;10.45;;;4.65;;
46355;SDS011;32066;49.474;11.106;2023-07-02T10:31:52;9.57;;;4.60;;
46355;SDS011;32066;49.474;11.106;2023-07-02T10:34:28;10.07;;;5.18;;
46355;SDS011;32066;49.474;11.106;2023-07-02T10:36:57;14.98;;;6.25;;
46355;SDS011;32066;49.474;11.106;2023-07-02T10:39:27;10.35;;;5.22;;
46355;SDS011;32066;49.474;11.106;2023-07-02T10:42:03;9.70;;;5.70;;
46355;SDS011;32066;49.474;11.106;2023-07-02T10:44:46;8.88;;;5.70;;
46355;SDS011;32066;49.474;11.106;2023-07-02T10:47:15;11.73;;;6.00;;
46355;SDS011;32066;49.474;11.106;2023-07-02T10:49:44;10.43;;;4.90;;
46355;SDS011;32066;49.474;11.106;2023-07-02T10:52:13;9.77;;;5.53;;
46355;SDS011;32066;49.474;11.106;2023-07-02T10:54:42;9.45;;;5.15;;
46355;SDS011;32066;49.474;11.106;2023-07-02T10:57:13;9.85;;;5.55;;
46355;SDS011;32066;49.474;11.106;2023-07-02T10:59:48;10.15;;;5.15;;
46355;SDS011;32066;49.474;11.106;2023-07-02T11:02:17;9.15;;;4.90;;
46355;SDS011;32066;49.474;11.106;2023-07-02T11:04:45;10.80;;;5.43;;
46355;SDS011;32066;49.474;11.106;2023-07-02T11:07:14;10.63;;;5.43;;
46355;SDS011;32066;49.474;11.106;2023-07-02T11:09:50;9.68;;;5.53;;
46355;SDS011;32066;49.474;11.106;2023-07-02T11:12:26;11.20;;;5.90;;
46355;SDS011;32066;49.474;11.106;2023-07-02T11:14:59;10.50;;;5.30;;
46355;SDS011;32066;49.474;11.106;2023-07-02T11:17:35;10.93;;;5.22;;
46355;SDS011;32066;49.474;11.106;2023-07-02T11:20:06;10.88;;;5.32;;
46355;SDS011;32066;49.474;11.106;2023-07-02T11:22:36;9.05;;;4.80;;
46355;SDS011;32066;49.474;11.106;2023-07-02T11:25:09;8.93;;;5.70;;
46355;SDS011;32066;49.474;11.106;2023-07-02T11:27:40;9.40;;;4.95;;
46355;SDS011;32066;49.474;11.106;2023-07-02T11:30:12;10.40;;;5.20;;
46355;SDS011;32066;49.474;11.106;2023-07-02T11:32:46;12.65;;;5.32;;
46355;SDS011;32066;49.474;11.106;2023-07-02T11:35:20;9.30;;;5.28;;
46355;SDS011;32066;49.474;11.106;2023-07-02T11:37:50;9.82;;;5.50;;
46355;SDS011;32066;49.474;11.106;2023-07-02T11:40:18;12.65;;;5.70;;
46355;SDS011;32066;49.474;11.106;2023-07-02T11:42:47;10.80;;;6.45;;
46355;SDS011;32066;49.474;11.106;2023-07-02T11:45:19;10.68;;;5.80;;
46355;SDS011;32066;49.474;11.106;2023-07-02T11:47:47;11.27;;;6.45;;
46355;SDS011;32066;49.474;11.106;2023-07-02T11:50:16;13.05;;;6.32;;
46355;SDS011;32066;49.474;11.106;2023-07-02T11:52:45;10.13;;;5.95;;
46355;SDS011;32066;49.474;11.106;2023-07-02T11:55:13;11.85;;;5.72;;
46355;SDS011;32066;49.474;11.106;2023-07-02T11:57:42;13.57;;;7.55;;
46355;SDS011;32066;49.474;11.106;2023-07-02T12:00:12;12.82;;;6.78;;
46355;SDS011;32066;49.474;11.106;2023-07-02T12:02:44;13.98;;;7.90;;
46355;SDS011;32066;49.474;11.106;2023-07-02T12:05:13;13.38;;;7.88;;
46355;SDS011;32066;49.474;11.106;2023-07-02T12:07:41;13.80;;;8.30;;
46355;SDS011;32066;49.474;11.106;2023-07-02T12:10:10;17.05;;;8.70;;
46355;SDS011;32066;49.474;11.106;2023-07-02T12:12:39;16.13;;;9.55;;
46355;SDS011;32066;49.474;11.106;2023-07-02T12:15:08;16.05;;;8.75;;
46355;SDS011;32066;49.474;11.106;2023-07-02T12:17:37;14.45;;;8.90;;
46355;SDS011;32066;49.474;11.106;2023-07-02T12:20:09;17.15;;;8.90;;
46355;SDS011;32066;49.474;11.106;2023-07-02T12:22:38;14.07;;;9.25;;
46355;SDS011;32066;49.474;11.106;2023-07-02T12:25:07;20.73;;;10.85;;
46355;SDS011;32066;49.474;11.106;2023-07-02T12:27:36;17.75;;;9.68;;
46355;SDS011;32066;49.474;11.106;2023-07-02T12:30:05;17.48;;;10.30;;
46355;SDS011;32066;49.474;11.106;2023-07-02T12:32:35;21.13;;;10.13;;
46355;SDS011;32066;49.474;11.106;2023-07-02T12:35:08;16.65;;;9.85;;
46355;SDS011;32066;49.474;11.106;2023-07-02T12:37:42;19.38;;;9.75;;
46355;SDS011;32066;49.474;11.106;2023-07-02T12:40:12;18.65;;;10.07;;
46355;SDS011;32066;49.474;11.106;2023-07-02T12:42:41;17.63;;;10.05;;
46355;SDS011;32066;49.474;11.106;2023-07-02T12:45:10;17.30;;;9.35;;
46355;SDS011;32066;49.474;11.106;2023-07-02T12:47:40;20.70;;;10.02;;
46355;SDS011;32066;49.474;11.106;2023-07-02T12:50:12;16.67;;;9.77;;
46355;SDS011;32066;49.474;11.106;2023-07-02T12:52:41;17.35;;;9.32;;
46355;SDS011;32066;49.474;11.106;2023-07-02T12:55:10;15.43;;;9.55;;
46355;SDS011;32066;49.474;11.106;2023-07-02T12:57:38;16.40;;;9.25;;
46355;SDS011;32066;49.474;11.106;2023-07-02T13:00:08;17.40;;;9.25;;
46355;SDS011;32066;49.474;11.106;2023-07-02T13:02:37;16.63;;;9.55;;
46355;SDS011;32066;49.474;11.106;2023-07-02T13:05:06;19.05;;;9.90;;
46355;SDS011;32066;49.474;11.106;2023-07-02T13:07:37;18.63;;;9.30;;
46355;SDS011;32066;49.474;11.106;2023-07-02T13:10:06;17.27;;;9.52;;
46355;SDS011;32066;49.474;11.106;2023-07-02T13:12:35;16.10;;;9.55;;
46355;SDS011;32066;49.474;11.106;2023-07-02T13:15:04;20.02;;;10.00;;
46355;SDS011;32066;49.474;11.106;2023-07-02T13:17:33;14.60;;;9.00;;
46355;SDS011;32066;49.474;11.106;2023-07-02T13:20:02;19.63;;;9.82;;
46355;SDS011;32066;49.474;11.106;2023-07-02T13:22:31;19.33;;;9.82;;
46355;SDS011;32066;49.474;11.106;2023-07-02T13:25:03;18.00;;;9.82;;
46355;SDS011;32066;49.474;11.106;2023-07-02T13:27:32;18.33;;;10.60;;
46355;SDS011;32066;49.474;11.106;2023-07-02T13:30:01;21.38;;;10.50;;
46355;SDS011;32066;49.474;11.106;2023-07-02T13:32:30;18.88;;;10.40;;
46355;SDS011;32066;49.474;11.106;2023-07-02T13:34:59;19.88;;;10.85;;
46355;SDS011;32066;49.474;11.106;2023-07-02T13:37:27;19.70;;;10.60;;
46355;SDS011;32066;49.474;11.106;2023-07-02T13:39:56;17.42;;;10.35;;
46355;SDS011;32066;49.474;11.106;2023-07-02T13:42:27;18.30;;;10.95;;
46355;SDS011;32066;49.474;11.106;2023-07-02T13:44:56;19.08;;;11.45;;
46355;SDS011;32066;49.474;11.106;2023-07-02T13:47:24;21.23;;;11.32;;
46355;SDS011;32066;49.474;11.106;2023-07-02T13:49:53;20.48;;;10.77;;
46355;SDS011;32066;49.474;11.106;2023-07-02T13:52:22;20.58;;;11.18;;
46355;SDS011;32066;49.474;11.106;2023-07-02T13:54:51;18.02;;;11.52;;
46355;SDS011;32066;49.474;11.106;2023-07-02T13:57:19;22.30;;;12.35;;
46355;SDS011;32066;49.474;11.106;2023-07-02T13:59:50;20.10;;;12.73;;
46355;SDS011;32066;49.474;11.106;2023-07-02T14:02:20;22.40;;;12.20;;
46355;SDS011;32066;49.474;11.106;2023-07-02T14:04:48;24.38;;;13.15;;
46355;SDS011;32066;49.474;11.106;2023-07-02T14:07:17;19.23;;;11.77;;
46355;SDS011;32066;49.474;11.106;2023-07-02T14:09:46;22.80;;;12.82;;
46355;SDS011;32066;49.474;11.106;2023-07-02T14:12:14;20.08;;;13.00;;
46355;SDS011;32066;49.474;11.106;2023-07-02T14:14:43;26.23;;;14.98;;
46355;SDS011;32066;49.474;11.106;2023-07-02T14:17:15;26.35;;;15.38;;
46355;SDS011;32066;49.474;11.106;2023-07-02T14:19:43;27.55;;;15.10;;
46355;SDS011;32066;49.474;11.106;2023-07-02T14:22:12;25.73;;;14.07;;
46355;SDS011;32066;49.474;11.106;2023-07-02T14:24:41;26.17;;;14.13;;
46355;SDS011;32066;49.474;11.106;2023-07-02T14:27:10;21.30;;;13.40;;
46355;SDS011;32066;49.474;11.106;2023-07-02T14:29:38;23.20;;;14.75;;
46355;SDS011;32066;49.474;11.106;2023-07-02T14:32:07;22.35;;;15.07;;
46355;SDS011;32066;49.474;11.106;2023-07-02T14:34:38;21.23;;;13.15;;
46355;SDS011;32066;49.474;11.106;2023-07-02T14:37:07;23.10;;;13.55;;
46355;SDS011;32066;49.474;11.106;2023-07-02T14:39:36;26.75;;;13.38;;
46355;SDS011;32066;49.474;11.106;2023-07-02T14:42:04;21.70;;;13.57;;